Time;durP1;ratioP1;P1;durP2;ratioP2;P2;SDS_P1;SDS_P2;PMS_P1;PMS_P2;Temp;Humidity;BMP_temperature;BMP_pressure;BME280_temperature;BME280_humidity;BME280_pressure;Samples;Min_cycle;Max_cycle;Signal;HPM_P1;HPM_P2
2023/03/24 00:01:51;;;;;;;32.00;17.10;;;;;;;11.81;49.23;100586.11;108248;1276;21988;-68
2023/03/24 00:04:17;;;;;;;24.50;15.10;;;;;;;11.79;49.85;100584.38;108000;1287;196621;-66
2023/03/24 00:06:43;;;;;;;18.90;13.10;;;;;;;11.81;49.42;100579.09;108239;1287;21990;-68
2023/03/24 00:09:09;;;;;;;19.40;11.30;;;;;;;11.88;49.11;100579.87;108162;1287;21990;-67
2023/03/24 00:11:37;;;;;;;15.30;10.60;;;;;;;11.99;48.76;100579.56;108255;1287;22077;-68
2023/03/24 00:14:10;;;;;;;16.40;11.70;;;;;;;11.98;48.57;100582.02;108194;1287;21984;-68
2023/03/24 00:16:41;;;;;;;17.90;12.30;;;;;;;11.95;48.52;100584.33;108180;1287;21981;-66
2023/03/24 00:19:13;;;;;;;21.50;11.70;;;;;;;11.94;48.76;100580.67;108065;1287;21989;-65
2023/03/24 00:21:41;;;;;;;16.80;12.10;;;;;;;11.90;48.61;100580.55;108206;1287;22021;-68
2023/03/24 00:24:07;;;;;;;19.20;13.80;;;;;;;11.87;48.68;100576.20;108240;1287;21986;-68
2023/03/24 00:26:38;;;;;;;18.60;12.50;;;;;;;11.86;48.57;100580.09;108278;1287;22024;-67
2023/03/24 00:29:06;;;;;;;16.90;11.90;;;;;;;11.84;48.57;100580.80;108143;1287;21991;-67
2023/03/24 00:31:32;;;;;;;18.80;12.10;;;;;;;11.79;48.56;100582.98;108210;1287;21984;-66
2023/03/24 00:34:01;;;;;;;17.10;11.70;;;;;;;11.74;48.70;100586.56;108140;1287;22003;-67
2023/03/24 00:36:27;;;;;;;16.00;10.70;;;;;;;11.72;48.73;100585.88;108154;1287;21998;-67
2023/03/24 00:38:54;;;;;;;18.20;12.30;;;;;;;11.71;49.04;100585.38;108287;1276;22011;-68
2023/03/24 00:41:25;;;;;;;17.80;12.30;;;;;;;11.71;49.07;100586.60;108316;1287;21986;-67
2023/03/24 00:43:52;;;;;;;;;;;;;;;11.72;49.04;100581.14;108267;1287;21973;-67
2023/03/24 00:46:27;;;;;;;21.30;13.40;;;;;;;11.76;49.25;100582.67;108266;1287;22023;-68
2023/03/24 00:49:01;;;;;;;20.10;13.90;;;;;;;11.80;49.41;100579.98;108256;1287;21985;-68
2023/03/24 00:51:33;;;;;;;21.10;14.00;;;;;;;11.83;49.54;100581.00;108117;1287;22450;-67
2023/03/24 00:54:00;;;;;;;20.30;14.00;;;;;;;11.86;49.65;100580.08;108210;1287;23350;-68
2023/03/24 00:56:29;;;;;;;19.30;13.10;;;;;;;11.88;49.98;100583.73;108178;1287;21974;-68
2023/03/24 00:58:56;;;;;;;22.40;13.40;;;;;;;11.87;49.83;100589.20;108223;1287;23732;-68
2023/03/24 01:01:24;;;;;;;20.10;13.50;;;;;;;11.87;50.03;100590.25;108122;1287;21983;-67
2023/03/24 01:03:51;;;;;;;18.70;13.40;;;;;;;11.89;49.97;100592.52;108112;1287;21988;-67
2023/03/24 01:06:17;;;;;;;22.80;14.40;;;;;;;11.92;50.02;100594.04;108164;1287;21982;-68
2023/03/24 01:08:48;;;;;;;20.70;14.40;;;;;;;11.97;50.00;100598.20;108153;1287;22022;-68
2023/03/24 01:11:15;;;;;;;18.90;12.10;;;;;;;12.01;49.92;100600.62;108131;1286;22011;-69
2023/03/24 01:13:41;;;;;;;23.40;14.90;;;;;;;12.05;50.30;100608.50;108193;1287;22008;-69
2023/03/24 01:16:08;;;;;;;21.10;14.20;;;;;;;12.05;50.55;100610.79;108296;1287;22007;-69
2023/03/24 01:18:34;;;;;;;21.70;15.00;;;;;;;12.05;50.40;100612.02;108248;1287;22026;-69
2023/03/24 01:21:00;;;;;;;22.10;15.00;;;;;;;12.03;50.65;100606.94;108022;1287;21970;-69
2023/03/24 01:23:26;;;;;;;23.80;14.70;;;;;;;12.03;50.40;100607.13;108238;1287;22007;-69
2023/03/24 01:25:52;;;;;;;23.40;15.20;;;;;;;11.93;50.72;100607.77;108272;1287;22003;-68
2023/03/24 01:28:23;;;;;;;18.20;13.20;;;;;;;11.86;51.13;100621.92;108266;1287;21988;-68
2023/03/24 01:30:52;;;;;;;21.30;14.20;;;;;;;11.83;51.08;100628.46;108252;1287;22098;-68
2023/03/24 01:33:18;;;;;;;18.70;13.70;;;;;;;11.85;51.04;100625.11;108262;1287;21985;-68
2023/03/24 01:35:44;;;;;;;22.50;14.80;;;;;;;11.89;51.12;100622.60;108266;1287;21998;-68
2023/03/24 01:38:11;;;;;;;22.00;13.90;;;;;;;11.87;51.53;100619.10;108295;1285;21991;-67
2023/03/24 01:40:38;;;;;;;21.20;15.30;;;;;;;11.81;51.34;100612.31;108246;1287;21997;-68
2023/03/24 01:43:05;;;;;;;24.00;15.80;;;;;;;11.80;51.13;100603.89;108029;1287;21992;-68
2023/03/24 01:45:44;;;;;;;24.10;15.90;;;;;;;11.81;51.25;100602.13;108188;1287;22880;-69
2023/03/24 01:48:19;;;;;;;23.00;14.90;;;;;;;11.80;51.63;100596.16;108200;1286;21986;-68
2023/03/24 01:51:13;;;;;;;23.90;14.70;;;;;;;11.74;51.79;100586.91;108159;1287;22067;-68
2023/03/24 01:53:46;;;;;;;21.70;14.40;;;;;;;11.89;51.46;100575.45;107915;1289;21995;-70
2023/03/24 01:56:12;;;;;;;26.00;15.50;;;;;;;11.89;51.53;100566.66;107952;1289;21995;-67
2023/03/24 01:58:45;;;;;;;21.50;15.50;;;;;;;11.87;51.67;100558.95;107812;1289;22000;-67
2023/03/24 02:01:14;;;;;;;20.90;13.90;;;;;;;12.00;51.52;100550.70;107800;1277;21989;-68
2023/03/24 02:03:41;;;;;;;21.70;15.60;;;;;;;12.12;51.46;100548.24;107886;1289;22002;-68
2023/03/24 02:06:07;;;;;;;22.70;14.30;;;;;;;12.28;50.87;100541.47;107861;1289;22043;-70
2023/03/24 02:08:41;;;;;;;20.30;15.50;;;;;;;12.35;50.67;100533.79;107867;1289;21999;-69
2023/03/24 02:11:07;;;;;;;20.40;14.50;;;;;;;12.39;50.37;100532.30;107982;1289;22009;-69
2023/03/24 02:13:32;;;;;;;18.90;13.00;;;;;;;12.41;49.87;100537.04;107961;1289;22031;-68
2023/03/24 02:16:07;;;;;;;17.20;12.70;;;;;;;12.41;49.57;100543.36;107814;1289;21992;-68
2023/03/24 02:18:53;;;;;;;18.50;12.40;;;;;;;12.41;49.26;100543.36;107891;1289;21992;-70
2023/03/24 02:21:25;;;;;;;22.50;12.70;;;;;;;12.37;48.85;100546.77;107825;1289;23059;-69
2023/03/24 02:24:03;;;;;;;18.60;12.50;;;;;;;12.34;48.84;100551.76;107831;1287;21998;-68
2023/03/24 02:26:44;;;;;;;21.30;14.30;;;;;;;12.32;48.86;100547.73;107878;1289;21997;-69
2023/03/24 02:29:29;;;;;;;20.70;14.60;;;;;;;12.31;49.07;100548.27;107854;1289;22043;-69
2023/03/24 02:32:11;;;;;;;21.60;14.50;;;;;;;12.31;48.96;100551.27;107815;1289;21984;-68
2023/03/24 02:34:49;;;;;;;18.20;13.10;;;;;;;12.32;48.86;100554.08;107961;1287;21987;-70
2023/03/24 02:37:43;;;;;;;19.00;13.20;;;;;;;12.33;48.96;100556.34;107835;1280;21996;-67
2023/03/24 02:40:12;;;;;;;21.60;12.70;;;;;;;12.36;48.92;100558.94;107083;1289;1002365;-69
2023/03/24 02:42:43;;;;;;;20.30;12.10;;;;;;;12.30;48.39;100563.96;107840;1289;22050;-68
2023/03/24 02:45:18;;;;;;;19.30;12.40;;;;;;;12.18;48.20;100569.43;107863;1289;22011;-69
2023/03/24 02:48:06;;;;;;;21.90;14.20;;;;;;;12.03;48.18;100579.67;107859;1289;21990;-68
2023/03/24 02:50:50;;;;;;;21.50;13.40;;;;;;;11.91;48.26;100587.39;107875;1288;21996;-70
2023/03/24 02:53:45;;;;;;;20.60;13.10;;;;;;;11.87;48.31;100593.95;108106;1287;22020;-67
2023/03/24 02:56:26;;;;;;;21.80;13.70;;;;;;;11.88;48.46;100595.52;108076;1288;21991;-69
2023/03/24 02:58:55;;;;;;;20.10;13.70;;;;;;;11.92;48.62;100596.52;108133;1288;21985;-67
2023/03/24 03:01:30;;;;;;;19.30;12.90;;;;;;;11.96;48.71;100590.81;108139;1288;21993;-69
2023/03/24 03:04:08;;;;;;;18.90;13.00;;;;;;;12.01;48.68;100590.42;108181;1288;22755;-67
2023/03/24 03:06:39;;;;;;;18.30;13.00;;;;;;;12.06;48.96;100591.60;108092;1279;22003;-67
2023/03/24 03:09:16;;;;;;;18.20;12.70;;;;;;;12.09;48.88;100586.80;108146;1287;23398;-69
2023/03/24 03:11:44;;;;;;;20.00;14.10;;;;;;;12.15;48.96;100584.42;108236;1277;21989;-67
2023/03/24 03:14:13;;;;;;;19.90;13.10;;;;;;;12.21;49.07;100586.97;108086;1284;21948;-67
2023/03/24 03:16:52;;;;;;;21.60;13.60;;;;;;;12.28;49.11;100586.86;108094;1287;21994;-66
2023/03/24 03:19:31;;;;;;;20.70;13.60;;;;;;;12.31;49.07;100591.92;108218;1287;21995;-69
2023/03/24 03:21:57;;;;;;;24.00;14.30;;;;;;;12.32;49.11;100593.84;108085;1287;21995;-67
2023/03/24 03:24:29;;;;;;;22.40;15.50;;;;;;;12.31;48.96;100593.33;107785;1287;22143;-69
2023/03/24 03:27:15;;;;;;;22.30;14.50;;;;;;;12.32;48.97;100594.71;107906;1287;22569;-69
2023/03/24 03:29:45;;;;;;;20.40;13.00;;;;;;;12.34;48.93;100597.33;108015;1287;21994;-67
2023/03/24 03:32:14;;;;;;;20.70;14.10;;;;;;;12.32;48.77;100600.88;107901;1287;21974;-69
2023/03/24 03:34:47;;;;;;;20.80;13.60;;;;;;;12.29;48.66;100604.98;108027;1287;23660;-69
2023/03/24 03:37:13;;;;;;;20.30;13.70;;;;;;;12.28;48.69;100609.73;108004;1287;21987;-67
2023/03/24 03:39:46;;;;;;;21.90;15.20;;;;;;;12.26;48.55;100613.10;108041;1283;21989;-69
2023/03/24 03:42:12;;;;;;;23.00;15.00;;;;;;;12.21;48.59;100613.01;107954;1287;21981;-67
2023/03/24 03:44:38;;;;;;;20.50;13.50;;;;;;;12.12;48.57;100617.73;108050;1287;21992;-69
2023/03/24 03:47:05;;;;;;;19.00;13.40;;;;;;;12.03;48.71;100620.48;108086;1287;21988;-68
2023/03/24 03:49:31;;;;;;;21.20;14.40;;;;;;;11.96;48.91;100615.45;108053;1287;21997;-69
2023/03/24 03:51:57;;;;;;;20.60;14.20;;;;;;;11.91;48.81;100617.11;107974;1288;22023;-69
2023/03/24 03:54:23;;;;;;;18.80;12.60;;;;;;;11.90;48.86;100607.81;108038;1288;22021;-66
2023/03/24 03:56:49;;;;;;;20.50;14.10;;;;;;;11.89;48.90;100602.73;107978;1288;21971;-66
2023/03/24 03:59:33;;;;;;;22.70;15.40;;;;;;;11.91;48.86;100595.65;108067;1288;22023;-69
2023/03/24 04:02:03;;;;;;;27.20;16.90;;;;;;;11.92;48.98;100590.90;108124;1288;21989;-69
2023/03/24 04:04:38;;;;;;;;;;;;;;;11.85;48.71;100586.23;108292;1288;21958;-69
2023/03/24 04:07:08;;;;;;;23.40;14.80;;;;;;;11.72;48.47;100584.66;108262;1288;21991;-68
2023/03/24 04:09:43;;;;;;;23.20;14.80;;;;;;;11.59;48.90;100579.20;108220;1288;21995;-68
2023/03/24 04:12:23;;;;;;;26.20;16.60;;;;;;;11.52;49.22;100574.20;108173;1283;22747;-69
2023/03/24 04:14:49;;;;;;;25.50;17.40;;;;;;;11.51;50.08;100575.63;108261;1288;23640;-67
2023/03/24 04:17:57;;;;;;;27.30;16.90;;;;;;;11.52;50.00;100577.02;108164;1288;21985;-69
2023/03/24 04:20:45;;;;;;;21.70;14.60;;;;;;;11.56;49.83;100576.96;107927;1289;22469;-69
2023/03/24 04:23:38;;;;;;;23.00;14.90;;;;;;;11.57;49.39;100577.13;108006;1289;21995;-67
2023/03/24 04:26:17;;;;;;;19.40;13.40;;;;;;;11.56;49.23;100577.15;108091;1289;21989;-68
2023/03/24 04:28:56;;;;;;;21.50;14.20;;;;;;;11.53;48.87;100579.11;108090;1289;21996;-70
2023/03/24 04:32:02;;;;;;;21.70;16.00;;;;;;;11.46;48.69;100575.70;108090;1289;22006;-67
2023/03/24 04:34:34;;;;;;;26.40;16.10;;;;;;;11.46;48.97;100579.73;108051;1289;22023;-67
2023/03/24 04:37:31;;;;;;;30.80;15.70;;;;;;;11.47;49.05;100579.55;108073;1289;22120;-66
2023/03/24 04:39:58;;;;;;;24.10;15.70;;;;;;;11.57;49.79;100577.48;108031;1277;22006;-66
2023/03/24 04:42:45;;;;;;;25.70;14.90;;;;;;;11.71;49.99;100572.38;108026;1285;21999;-68
2023/03/24 04:45:11;;;;;;;19.40;13.60;;;;;;;11.87;50.00;100568.46;108039;1278;21983;-64
2023/03/24 04:47:49;;;;;;;25.90;13.80;;;;;;;12.01;49.97;100567.75;107838;1289;21992;-67
2023/03/24 04:50:29;;;;;;;29.00;14.50;;;;;;;12.13;49.82;100575.13;108049;1277;22027;-65
2023/03/24 04:52:56;;;;;;;21.90;13.30;;;;;;;12.27;49.97;100578.27;107716;1289;21995;-67
2023/03/24 04:55:21;;;;;;;25.20;14.90;;;;;;;12.40;49.85;100579.45;107850;1289;23671;-66
2023/03/24 04:57:47;;;;;;;31.00;14.80;;;;;;;12.54;49.82;100580.27;107815;1289;24379;-65
2023/03/24 05:00:15;;;;;;;21.60;14.10;;;;;;;12.67;49.83;100579.16;107960;1289;22043;-66
2023/03/24 05:02:44;;;;;;;21.60;13.40;;;;;;;12.77;49.81;100587.08;107983;1289;22033;-68
2023/03/24 05:05:11;;;;;;;30.90;13.80;;;;;;;12.88;49.91;100585.48;108008;1289;21985;-67
2023/03/24 05:07:38;;;;;;;28.00;16.30;;;;;;;12.99;50.06;100581.23;108021;1289;21988;-66
2023/03/24 05:10:05;;;;;;;28.70;16.80;;;;;;;13.09;50.11;100583.50;108007;1280;23641;-68
2023/03/24 05:12:35;;;;;;;27.40;15.80;;;;;;;13.20;50.28;100586.30;107987;1289;23218;-67
2023/03/24 05:15:02;;;;;;;30.20;17.20;;;;;;;13.33;51.11;100594.30;107974;1289;21993;-68
2023/03/24 05:17:28;;;;;;;31.20;19.30;;;;;;;13.47;51.54;100594.58;107874;1289;22084;-69
2023/03/24 05:19:56;;;;;;;29.20;19.30;;;;;;;13.59;51.74;100598.05;108010;1289;21991;-69
2023/03/24 05:22:22;;;;;;;28.80;19.70;;;;;;;13.65;51.82;100599.30;107983;1289;22452;-66
2023/03/24 05:24:48;;;;;;;29.60;19.10;;;;;;;13.74;51.95;100603.88;108001;1289;21989;-66
2023/03/24 05:27:14;;;;;;;28.20;18.50;;;;;;;13.82;52.25;100609.70;107270;1289;1002461;-68
2023/03/24 05:29:40;;;;;;;25.40;16.90;;;;;;;13.90;52.17;100611.64;108015;1289;21994;-67
2023/03/24 05:32:05;;;;;;;26.30;18.10;;;;;;;14.01;52.27;100613.88;107955;1289;22002;-68
2023/03/24 05:34:31;;;;;;;26.80;17.80;;;;;;;14.12;52.14;100621.74;107981;1289;22085;-67
2023/03/24 05:36:58;;;;;;;24.80;17.00;;;;;;;14.19;51.82;100621.59;108057;1289;21989;-69
2023/03/24 05:39:26;;;;;;;24.80;18.40;;;;;;;14.25;51.73;100620.37;107891;1289;21989;-65
2023/03/24 05:41:52;;;;;;;26.50;18.80;;;;;;;14.32;51.85;100620.41;108135;1283;22000;-67
2023/03/24 05:44:18;;;;;;;24.60;18.20;;;;;;;14.39;51.91;100623.40;107982;1288;21988;-66
2023/03/24 05:46:44;;;;;;;23.80;17.20;;;;;;;14.47;51.94;100623.20;107937;1289;21998;-68
2023/03/24 05:49:10;;;;;;;28.10;17.90;;;;;;;14.54;52.10;100630.64;108070;1289;21997;-67
2023/03/24 05:51:37;;;;;;;22.50;17.80;;;;;;;14.57;52.17;100632.31;108100;1286;21987;-65
2023/03/24 05:54:04;;;;;;;26.70;17.90;;;;;;;14.64;52.18;100635.52;108209;1287;21987;-66
2023/03/24 05:56:31;;;;;;;24.30;18.10;;;;;;;14.72;52.30;100636.91;108157;1287;22646;-65
2023/03/24 05:58:57;;;;;;;24.80;18.50;;;;;;;14.80;52.82;100639.03;105100;1287;1003601;-66
2023/03/24 06:01:24;;;;;;;25.30;18.60;;;;;;;14.87;52.68;100640.27;108069;1287;21986;-66
2023/03/24 06:03:49;;;;;;;23.20;16.90;;;;;;;14.94;53.36;100640.44;108125;1287;22024;-67
2023/03/24 06:06:15;;;;;;;26.30;18.30;;;;;;;14.99;53.50;100645.05;108078;1287;22080;-67
2023/03/24 06:08:43;;;;;;;22.50;16.50;;;;;;;15.06;53.22;100649.30;108124;1287;21996;-66
2023/03/24 06:11:11;;;;;;;21.80;16.30;;;;;;;15.14;52.88;100651.20;108278;1287;21984;-65
2023/03/24 06:13:37;;;;;;;24.70;16.90;;;;;;;15.24;52.99;100652.37;108137;1287;22002;-65
2023/03/24 06:16:03;;;;;;;22.30;15.90;;;;;;;15.33;52.76;100653.35;108101;1287;22468;-67
2023/03/24 06:18:33;;;;;;;25.70;16.80;;;;;;;15.45;52.80;100654.95;108117;1287;21989;-65
2023/03/24 06:20:59;;;;;;;27.40;17.70;;;;;;;15.57;52.68;100654.09;108107;1287;21992;-66
2023/03/24 06:23:26;;;;;;;25.40;18.90;;;;;;;15.70;52.93;100649.98;108216;1287;22040;-66
2023/03/24 06:25:57;;;;;;;26.20;18.60;;;;;;;15.82;53.67;100652.13;108160;1287;21987;-66
2023/03/24 06:28:25;;;;;;;21.90;16.10;;;;;;;15.95;53.37;100650.89;107352;1287;1002336;-66
2023/03/24 06:30:57;;;;;;;24.00;15.50;;;;;;;16.13;52.95;100646.45;108166;1287;21992;-67
2023/03/24 06:33:24;;;;;;;20.70;14.30;;;;;;;16.33;53.12;100647.06;108160;1287;22065;-66
2023/03/24 06:35:51;;;;;;;22.60;14.50;;;;;;;16.49;52.83;100652.41;108178;1287;21989;-67
2023/03/24 06:38:22;;;;;;;22.20;15.80;;;;;;;16.65;52.71;100654.36;108171;1287;21987;-64
2023/03/24 06:40:48;;;;;;;21.40;16.30;;;;;;;16.79;52.64;100652.47;108093;1287;21951;-66
2023/03/24 06:43:14;;;;;;;22.80;16.40;;;;;;;16.93;52.27;100647.06;108124;1287;21963;-66
2023/03/24 06:45:40;;;;;;;17.70;13.80;;;;;;;17.08;51.97;100641.41;108135;1287;22450;-66
2023/03/24 06:48:06;;;;;;;19.10;14.80;;;;;;;17.21;51.88;100637.05;108078;1287;22003;-67
2023/03/24 06:50:37;;;;;;;19.60;15.70;;;;;;;17.36;51.86;100632.96;108097;1287;21992;-67
2023/03/24 06:53:03;;;;;;;24.20;17.00;;;;;;;17.47;51.83;100633.45;108072;1287;22028;-67
2023/03/24 06:55:32;;;;;;;21.80;16.10;;;;;;;17.59;51.55;100634.27;108218;1287;21986;-65
2023/03/24 06:57:59;;;;;;;20.70;15.40;;;;;;;17.62;51.47;100632.02;108100;1287;22462;-67
2023/03/24 07:00:27;;;;;;;19.10;13.60;;;;;;;17.73;50.92;100632.83;108163;1287;21985;-66
2023/03/24 07:02:54;;;;;;;19.40;15.40;;;;;;;17.81;50.58;100631.83;108207;1287;22050;-65
2023/03/24 07:05:21;;;;;;;19.00;14.90;;;;;;;17.84;50.45;100628.52;108182;1287;21984;-65
2023/03/24 07:07:47;;;;;;;21.50;15.30;;;;;;;17.85;50.23;100626.70;108118;1287;22430;-62
2023/03/24 07:10:20;;;;;;;20.20;14.80;;;;;;;17.87;50.19;100625.40;108229;1287;21989;-64
2023/03/24 07:12:48;;;;;;;21.70;15.50;;;;;;;17.93;50.29;100624.81;108223;1287;23628;-68
2023/03/24 07:15:13;;;;;;;21.50;15.00;;;;;;;18.03;50.62;100626.91;108032;1287;22742;-63
2023/03/24 07:17:45;;;;;;;17.60;14.60;;;;;;;18.22;50.74;100626.36;108131;1287;21999;-63
2023/03/24 07:20:11;;;;;;;19.20;14.40;;;;;;;18.38;50.40;100631.40;108118;1287;22157;-65
2023/03/24 07:22:41;;;;;;;22.10;13.20;;;;;;;18.57;49.46;100626.55;108066;1287;21989;-65
2023/03/24 07:25:07;;;;;;;20.90;13.70;;;;;;;18.84;49.11;100621.86;108177;1287;21987;-66
2023/03/24 07:27:33;;;;;;;15.60;11.70;;;;;;;19.05;48.20;100616.17;108124;1285;21987;-65
2023/03/24 07:30:00;;;;;;;29.10;11.60;;;;;;;19.32;47.71;100608.06;108012;1287;21996;-66
2023/03/24 07:32:28;;;;;;;15.30;9.50;;;;;;;19.62;47.22;100604.04;108109;1287;22008;-67
2023/03/24 07:34:54;;;;;;;15.90;10.80;;;;;;;19.83;45.93;100601.62;108125;1287;21997;-66
2023/03/24 07:37:20;;;;;;;14.30;9.90;;;;;;;19.98;44.30;100597.74;108079;1287;22031;-66
2023/03/24 08:25:12;;;;;;;10.60;7.30;;;;;;;21.83;40.73;100604.84;107830;1289;21987;-67
2023/03/24 08:27:43;;;;;;;10.20;7.60;;;;;;;21.98;39.95;100596.33;107862;1288;21982;-68
2023/03/24 08:30:10;;;;;;;10.80;6.60;;;;;;;22.27;39.82;100589.48;107774;1290;22006;-68
2023/03/24 08:32:36;;;;;;;11.40;6.70;;;;;;;22.38;39.76;100587.11;107840;1290;21999;-63
2023/03/24 08:35:03;;;;;;;11.60;6.50;;;;;;;22.50;38.97;100579.45;107743;1290;21995;-63
2023/03/24 08:37:30;;;;;;;9.60;6.70;;;;;;;22.66;38.43;100578.70;107845;1290;21993;-63
2023/03/24 08:39:57;;;;;;;11.70;7.50;;;;;;;22.78;38.08;100581.33;107812;1290;21996;-63
2023/03/24 08:42:24;;;;;;;10.10;6.60;;;;;;;22.95;38.31;100577.45;107781;1290;22000;-68
2023/03/24 08:44:51;;;;;;;12.80;7.00;;;;;;;23.11;38.16;100573.67;107784;1289;22000;-67
2023/03/24 08:47:17;;;;;;;9.20;5.70;;;;;;;23.20;37.68;100573.25;107778;1286;21995;-69
2023/03/24 08:49:42;;;;;;;7.80;5.60;;;;;;;23.19;36.20;100568.35;107698;1290;22002;-69
2023/03/24 08:52:08;;;;;;;8.60;5.00;;;;;;;23.20;35.40;100570.23;107806;1290;22000;-63
2023/03/24 08:54:35;;;;;;;8.50;5.50;;;;;;;23.27;35.66;100568.38;107779;1290;21995;-69
2023/03/24 08:57:01;;;;;;;7.90;4.60;;;;;;;23.36;35.87;100564.60;107744;1290;23634;-69
2023/03/24 08:59:26;;;;;;;7.80;4.40;;;;;;;23.44;35.74;100564.46;107001;1290;1002987;-64
2023/03/24 09:01:52;;;;;;;7.00;4.80;;;;;;;23.50;35.71;100560.13;107709;1290;21993;-63
2023/03/24 09:04:21;;;;;;;7.60;4.30;;;;;;;23.74;34.35;100558.08;107806;1290;22002;-63
2023/03/24 09:06:48;;;;;;;9.50;5.30;;;;;;;23.80;33.26;100551.80;107956;1290;21995;-63
2023/03/24 09:09:14;;;;;;;8.20;5.40;;;;;;;23.92;34.74;100548.11;107976;1290;21986;-68
2023/03/24 09:11:47;;;;;;;9.30;5.70;;;;;;;24.03;34.87;100547.63;107764;1290;22000;-68
2023/03/24 09:14:12;;;;;;;19.80;5.80;;;;;;;24.17;34.62;100543.13;107784;1290;21990;-64
2023/03/24 09:16:40;;;;;;;8.10;6.10;;;;;;;24.27;34.35;100549.97;107801;1290;22108;-63
2023/03/24 09:19:11;;;;;;;10.70;5.50;;;;;;;24.27;33.52;100549.27;107783;1290;22261;-68
2023/03/24 09:21:37;;;;;;;10.60;5.90;;;;;;;24.46;34.29;100546.71;107746;1290;21993;-63
2023/03/24 09:24:03;;;;;;;8.30;5.60;;;;;;;24.55;35.10;100541.26;107750;1290;22007;-64
2023/03/24 09:26:29;;;;;;;10.50;6.70;;;;;;;24.56;33.78;100540.51;107799;1289;21995;-63
2023/03/24 09:28:55;;;;;;;9.40;5.90;;;;;;;24.65;33.50;100534.84;107813;1282;21987;-64
2023/03/24 09:31:23;;;;;;;8.00;6.70;;;;;;;24.74;33.32;100532.49;107857;1290;21990;-63
2023/03/24 09:33:48;;;;;;;10.20;6.90;;;;;;;24.81;34.17;100535.95;107832;1290;21999;-64
2023/03/24 09:36:14;;;;;;;9.30;6.20;;;;;;;24.83;32.88;100537.22;107843;1289;21988;-64
2023/03/24 09:38:40;;;;;;;9.40;6.80;;;;;;;24.75;32.78;100534.05;107823;1289;21996;-69
2023/03/24 09:41:19;;;;;;;11.10;7.70;;;;;;;24.82;33.15;100534.30;107811;1289;21990;-69
2023/03/24 09:43:49;;;;;;;8.80;7.40;;;;;;;24.96;33.32;100533.80;107813;1290;21985;-68
2023/03/24 09:46:28;;;;;;;11.80;8.00;;;;;;;25.03;33.29;100534.41;107863;1289;21979;-64
2023/03/24 09:48:56;;;;;;;10.00;7.70;;;;;;;25.07;33.37;100533.56;107793;1290;21987;-64
2023/03/24 09:51:32;;;;;;;9.60;7.00;;;;;;;25.11;33.70;100528.48;107853;1290;21994;-69
2023/03/24 09:54:10;;;;;;;11.40;7.10;;;;;;;25.22;33.40;100528.22;107826;1289;21995;-69
2023/03/24 09:56:40;;;;;;;9.10;5.80;;;;;;;25.41;33.65;100535.86;107829;1289;22005;-69
2023/03/24 09:59:11;;;;;;;8.70;6.20;;;;;;;25.46;32.10;100533.02;107746;1290;21995;-69
2023/03/24 10:01:37;;;;;;;15.00;7.30;;;;;;;25.66;33.60;100534.79;107908;1290;21993;-62
2023/03/24 10:04:03;;;;;;;11.70;7.30;;;;;;;25.78;33.14;100536.22;107813;1290;21990;-62
2023/03/24 10:06:38;;;;;;;9.60;7.10;;;;;;;25.85;32.86;100536.59;107767;1290;21995;-63
2023/03/24 10:09:07;;;;;;;8.60;7.30;;;;;;;25.97;33.30;100530.55;107825;1290;22070;-63
2023/03/24 10:11:45;;;;;;;9.80;7.60;;;;;;;25.96;31.79;100530.98;107821;1290;22033;-68
2023/03/24 10:14:23;;;;;;;9.20;7.70;;;;;;;25.93;32.23;100529.59;107767;1290;21988;-68
2023/03/24 10:16:51;;;;;;;9.10;7.10;;;;;;;25.86;32.24;100524.53;107971;1290;22029;-64
2023/03/24 10:19:58;;;;;;;10.90;7.40;;;;;;;25.85;33.08;100520.80;107827;1290;21996;-64
2023/03/24 10:22:31;;;;;;;12.90;7.70;;;;;;;25.97;32.77;100521.58;106943;1290;1002531;-64
2023/03/24 10:25:12;;;;;;;10.70;7.30;;;;;;;25.93;32.42;100523.15;107743;1290;21992;-64
2023/03/24 10:27:46;;;;;;;13.20;6.70;;;;;;;25.88;31.87;100517.34;107793;1289;23458;-63
2023/03/24 10:30:21;;;;;;;10.00;6.90;;;;;;;25.88;31.86;100514.66;107881;1290;22030;-63
2023/03/24 10:32:49;;;;;;;9.60;6.90;;;;;;;25.95;32.04;100515.05;107826;1290;23774;-69
2023/03/24 10:35:29;;;;;;;10.00;7.40;;;;;;;26.00;32.23;100512.33;107736;1290;21995;-65
2023/03/24 10:37:56;;;;;;;;;;;;;;;26.08;32.01;100511.95;107801;1290;21975;-70
2023/03/24 10:40:25;;;;;;;11.10;6.10;;;;;;;26.13;32.36;100501.30;107736;1290;21992;-65
2023/03/24 10:42:51;;;;;;;8.20;6.00;;;;;;;26.20;32.14;100497.18;107793;1290;21993;-69
2023/03/24 10:45:26;;;;;;;8.50;5.90;;;;;;;26.32;31.98;100495.20;107748;1286;21995;-70
2023/03/24 10:47:53;;;;;;;10.30;6.50;;;;;;;26.36;31.37;100492.55;107776;1290;22001;-70
2023/03/24 10:50:22;;;;;;;8.90;6.20;;;;;;;26.35;31.05;100490.70;107777;1290;21996;-64
2023/03/24 10:52:50;;;;;;;7.10;5.20;;;;;;;26.38;30.75;100492.94;107758;1290;22220;-64
2023/03/24 10:55:17;;;;;;;8.20;5.60;;;;;;;26.42;31.08;100492.61;107788;1290;21990;-64
2023/03/24 10:57:57;;;;;;;8.50;5.30;;;;;;;26.59;31.78;100489.86;107021;1290;1002172;-69
2023/03/24 11:00:30;;;;;;;7.80;5.60;;;;;;;26.72;30.59;100487.63;107909;1290;23670;-70
2023/03/24 11:03:01;;;;;;;7.30;4.50;;;;;;;26.73;30.74;100487.58;107879;1289;23729;-64
2023/03/24 11:05:29;;;;;;;7.20;4.80;;;;;;;26.70;30.45;100483.48;107776;1290;24190;-65
2023/03/24 11:07:58;;;;;;;10.90;4.80;;;;;;;26.78;30.66;100480.16;107705;1289;22032;-66
2023/03/24 11:10:29;;;;;;;8.70;5.10;;;;;;;27.00;30.45;100477.30;107819;1289;23829;-63
2023/03/24 11:12:58;;;;;;;5.50;4.20;;;;;;;27.02;29.62;100475.37;107852;1286;22070;-63
2023/03/24 11:15:28;;;;;;;5.80;4.30;;;;;;;26.90;29.44;100469.83;107750;1290;22041;-69
2023/03/24 11:17:58;;;;;;;14.30;4.20;;;;;;;26.99;30.19;100467.86;107880;1287;22052;-69
2023/03/24 11:20:36;;;;;;;7.70;3.80;;;;;;;27.11;29.82;100466.06;107820;1291;21995;-63
2023/03/24 11:23:16;;;;;;;5.70;4.10;;;;;;;27.22;29.42;100464.96;107770;1290;21992;-63
2023/03/24 11:25:49;;;;;;;8.20;4.20;;;;;;;27.35;29.67;100461.42;107716;1290;22003;-64
2023/03/24 11:28:20;;;;;;;5.70;3.50;;;;;;;27.39;29.25;100460.52;107745;1281;22590;-69
2023/03/24 11:30:50;;;;;;;7.10;3.70;;;;;;;27.46;29.38;100458.02;107785;1290;22000;-64
2023/03/24 11:33:28;;;;;;;10.00;4.40;;;;;;;27.44;29.24;100459.23;107793;1290;21993;-69
2023/03/24 11:35:56;;;;;;;6.20;4.10;;;;;;;27.46;29.59;100461.56;107806;1280;22004;-63
2023/03/24 11:38:32;;;;;;;6.60;3.90;;;;;;;27.41;28.91;100459.98;107774;1291;22000;-63
2023/03/24 11:41:01;;;;;;;6.60;4.20;;;;;;;27.59;29.29;100457.48;107801;1290;21993;-64
2023/03/24 11:43:27;;;;;;;4.70;3.20;;;;;;;27.76;29.73;100458.64;107761;1290;22171;-70
2023/03/24 11:46:04;;;;;;;8.10;4.70;;;;;;;27.88;29.05;100456.52;107747;1290;22023;-69
2023/03/24 11:48:48;;;;;;;6.00;4.40;;;;;;;27.73;28.54;100458.30;108069;1290;22010;-69
2023/03/24 11:51:22;;;;;;;11.50;4.20;;;;;;;27.61;29.45;100451.16;108000;1290;21994;-70
2023/03/24 11:53:50;;;;;;;9.10;4.60;;;;;;;27.54;28.73;100452.09;107839;1290;21971;-70
2023/03/24 11:56:40;;;;;;;5.70;3.80;;;;;;;27.57;29.38;100447.20;108048;1286;23776;-62
2023/03/24 11:59:32;;;;;;;9.00;3.70;;;;;;;27.63;29.08;100441.83;107861;1290;22001;-70
2023/03/24 12:02:08;;;;;;;6.50;3.70;;;;;;;27.80;29.04;100432.30;107871;1289;23644;-70
2023/03/24 12:04:59;;;;;;;7.30;3.70;;;;;;;27.89;28.55;100433.56;107608;1290;22460;-63
2023/03/24 12:07:40;;;;;;;8.60;4.10;;;;;;;27.90;28.30;100432.23;107791;1290;23648;-64
2023/03/24 12:10:39;;;;;;;5.90;3.90;;;;;;;27.82;28.81;100434.64;107682;1290;22180;-64